KSDY/SDY METAR and TAF weather

Enter ICAO airport designator
Station Type Date Time Source
KSDY METAR 2020/02/19 10:56 UTC NOAA

KSDY 191056Z AUTO 00000KT 10SM CLR M26/M29 A3058 RMK AO2 SLP747 T12611289 FZRANO


Station Type Date Time Source
KSDY Decoded METAR 2020/02/19 10:56 UTC NOAA

Sidney-Richland, MT, United States (KSDY) 47-42N 104-12W
Feb 19, 2020 - 05:56 AM EST / 2020.02.19 1056 UTC
Wind: Calm:0
Visibility: 10 mile(s):0
Sky conditions: clear
Temperature: -15.0 F (-26.1 C)
Dew Point: -20.0 F (-28.9 C)
Relative Humidity: 77%
Pressure (altimeter): 30.58 in. Hg (1035 hPa)
ob: KSDY 191056Z AUTO 00000KT 10SM CLR M26/M29 A3058 RMK AO2 SLP747 T12611289 FZRANO
cycle: 11

Station Type Date Time Source
KSDY TAF 2020/02/19 12:22 UTC NOAA

TAF KSDY 191120Z 1912/2012 VRB03KT P6SM SKC
FM200600 21007KT P6SM FEW140

Example: see airport list